Terminal Aerodrome Forecast
Issued by NWS Corpus Christi, TX

Home | Current Version | Previous Version | Text Only | Print | Product List | Glossary On
Versions: 1 2 3 4 5 6 7 8 9 10 11 12 13 14 15 16 17 18 19 20 21 22 23 24 25 26 27 28 29 30 31 32 33 34 35 36 37 38
000
FTUS44 KCRP 270540
TAFCRP
TAF
KCRP 270540Z 2706/2806 14010KT 3SM BR BKN007 OVC013
      TEMPO 2706/2708 1SM BR OVC004
     FM270800 VRB03KT 1SM BR OVC004
      TEMPO 2708/2710 1/2SM FG
     FM271300 34012G18KT P6SM SCT009 BKN020
     FM271600 33015G20KT P6SM SCT035
     FM280200 VRB03KT P6SM SKC=

USA.gov is the U.S. government's official web portal to all federal, state and local government web resources and services.